Time;durP1;ratioP1;P1;durP2;ratioP2;P2;SDS_P1;SDS_P2;PMS_P1;PMS_P2;Temp;Humidity;BMP_temperature;BMP_pressure;BME280_temperature;BME280_humidity;BME280_pressure;Samples;Min_cycle;Max_cycle;Signal;HPM_P1;HPM_P2
2022/11/01 00:00:51;;;;;;;6.70;3.40;;;;;;;19.56;48.34;99776.03;5062055;28;20056;-61
2022/11/01 00:03:19;;;;;;;10.32;3.70;;;;;;;19.60;47.85;99772.03;5062562;28;20052;-61
2022/11/01 00:05:46;;;;;;;6.82;2.88;;;;;;;19.64;48.38;99791.84;5066526;28;20049;-60
2022/11/01 00:08:13;;;;;;;9.57;3.80;;;;;;;19.61;47.71;99775.66;5055098;28;20053;-61
2022/11/01 00:10:42;;;;;;;6.35;3.25;;;;;;;19.57;48.61;99778.50;5053072;28;20064;-61
2022/11/01 00:13:09;;;;;;;8.30;3.37;;;;;;;19.63;48.57;99781.72;5052395;28;20500;-61
2022/11/01 00:15:37;;;;;;;8.20;3.65;;;;;;;19.66;48.42;99758.38;5052619;28;20059;-61
2022/11/01 00:18:07;;;;;;;7.72;3.55;;;;;;;19.62;48.75;99774.47;5052704;28;20053;-61
2022/11/01 00:20:34;;;;;;;7.97;3.40;;;;;;;19.67;48.65;99771.28;5052773;28;20159;-61
2022/11/01 00:23:02;;;;;;;8.27;3.47;;;;;;;19.57;49.04;99774.81;5052404;28;20390;-61
2022/11/01 00:25:29;;;;;;;7.25;3.30;;;;;;;19.61;48.41;99770.00;5051558;28;20152;-58
2022/11/01 00:27:57;;;;;;;8.07;3.17;;;;;;;19.66;48.96;99773.28;5069531;28;20520;-61
2022/11/01 00:30:25;;;;;;;8.90;3.50;;;;;;;19.49;49.60;99771.16;5071892;28;20060;-61
2022/11/01 00:32:52;;;;;;;8.75;3.58;;;;;;;19.49;49.85;99762.69;5072000;28;20488;-61
2022/11/01 00:35:19;;;;;;;8.13;3.60;;;;;;;19.50;48.98;99767.13;5072247;28;20469;-61
2022/11/01 00:37:46;;;;;;;8.77;3.83;;;;;;;19.45;49.59;99764.69;5072157;28;20052;-62
2022/11/01 00:40:14;;;;;;;10.15;3.33;;;;;;;19.47;49.33;99774.38;5067135;28;20064;-61
2022/11/01 00:42:41;;;;;;;7.28;3.70;;;;;;;19.49;49.48;99754.22;5061615;28;20052;-60
2022/11/01 00:45:11;;;;;;;9.68;3.55;;;;;;;19.36;50.21;99735.94;5072216;28;20087;-59
2022/11/01 00:47:38;;;;;;;7.60;3.80;;;;;;;19.38;50.42;99734.38;5070059;28;20057;-63
2022/11/01 00:50:09;;;;;;;6.93;3.40;;;;;;;19.21;50.29;99732.19;5059057;28;20056;-63
2022/11/01 00:52:37;;;;;;;5.82;3.63;;;;;;;19.24;51.09;99737.88;5070553;28;20067;-62
2022/11/01 00:55:06;;;;;;;7.65;3.50;;;;;;;19.23;51.21;99763.69;5066358;28;20064;-60
2022/11/01 00:57:33;;;;;;;5.23;2.97;;;;;;;19.22;50.79;99756.44;5070465;28;20059;-62
2022/11/01 01:00:01;;;;;;;5.32;3.00;;;;;;;19.12;51.18;99782.56;5070525;28;20052;-63
2022/11/01 01:02:29;;;;;;;6.50;3.63;;;;;;;19.09;52.01;99743.78;5062688;28;20045;-61
2022/11/01 01:04:57;;;;;;;6.67;3.80;;;;;;;19.18;54.20;99747.13;5071770;28;20064;-61
2022/11/01 01:07:24;;;;;;;7.32;3.45;;;;;;;18.99;53.96;99754.63;5068000;28;20060;-62
2022/11/01 01:09:55;;;;;;;17.77;3.97;;;;;;;18.78;55.25;99779.78;5052307;28;20505;-63
2022/11/01 01:12:23;;;;;;;8.45;3.60;;;;;;;18.79;55.74;99762.50;5068490;28;20056;-62
2022/11/01 01:14:50;;;;;;;8.65;3.50;;;;;;;18.79;55.83;99758.84;5071849;28;20488;-61
2022/11/01 01:17:24;;;;;;;7.47;3.38;;;;;;;18.67;55.63;99743.81;5058777;28;20056;-62
2022/11/01 01:19:53;;;;;;;9.82;3.40;;;;;;;18.58;56.95;99734.03;5055400;28;20048;-62
2022/11/01 01:22:21;;;;;;;6.40;3.40;;;;;;;18.61;56.92;99734.06;5068723;28;20064;-63
2022/11/01 01:24:48;;;;;;;8.57;3.75;;;;;;;18.59;56.48;99730.00;5071931;28;20044;-61
2022/11/01 01:27:16;;;;;;;8.05;4.03;;;;;;;18.53;56.87;99725.91;5061785;28;20083;-60
2022/11/01 01:29:44;;;;;;;7.30;3.60;;;;;;;18.39;57.63;99729.38;5071316;28;20059;-61
2022/11/01 01:32:16;;;;;;;8.30;3.75;;;;;;;18.35;58.02;99737.81;5065234;28;20059;-60
2022/11/01 01:34:43;;;;;;;9.38;3.80;;;;;;;18.32;58.31;99734.97;5052245;28;20045;-61
2022/11/01 01:37:15;;;;;;;6.70;3.63;;;;;;;18.25;58.15;99733.69;5061570;28;20064;-61
2022/11/01 01:39:42;;;;;;;9.20;3.70;;;;;;;18.27;58.33;99738.94;5071309;28;20056;-61
2022/11/01 01:42:24;;;;;;;7.47;3.28;;;;;;;18.37;58.11;99746.72;5055617;28;20056;-61
2022/11/01 01:45:21;;;;;;;11.25;3.88;;;;;;;18.25;58.63;99763.88;5055796;28;20084;-61
2022/11/01 01:47:52;;;;;;;7.30;3.60;;;;;;;18.30;58.93;99763.53;5066619;28;20489;-61
2022/11/01 01:50:27;;;;;;;6.63;3.83;;;;;;;18.33;59.11;99751.50;5076148;28;20571;-61
2022/11/01 01:53:03;;;;;;;9.52;4.05;;;;;;;18.33;59.03;99739.38;5070408;28;20049;-62
2022/11/01 01:55:35;;;;;;;7.18;3.67;;;;;;;18.29;58.98;99732.88;5067279;28;20048;-62
2022/11/01 01:58:07;;;;;;;7.30;3.80;;;;;;;18.25;59.55;99719.59;5075851;28;20056;-62
2022/11/01 02:00:34;;;;;;;6.65;3.75;;;;;;;18.26;59.06;99706.28;5073618;28;20508;-60
2022/11/01 02:03:02;;;;;;;7.60;3.40;;;;;;;18.20;59.17;99694.53;5055362;28;20053;-62
2022/11/01 02:05:36;;;;;;;7.30;4.10;;;;;;;18.13;59.22;99710.56;5053927;28;20060;-62
2022/11/01 02:08:06;;;;;;;9.13;3.50;;;;;;;18.16;58.78;99698.50;5062837;28;20049;-61
2022/11/01 02:10:35;;;;;;;8.68;3.97;;;;;;;18.22;58.82;99705.44;5063575;28;20045;-61
2022/11/01 02:13:02;;;;;;;5.63;3.70;;;;;;;18.17;58.77;99700.97;5055531;28;20045;-62
2022/11/01 02:15:37;;;;;;;6.38;3.33;;;;;;;18.14;58.36;99701.75;5054837;28;20051;-62
2022/11/01 02:18:18;;;;;;;9.63;3.67;;;;;;;18.23;58.38;99687.34;5055325;28;20049;-61
2022/11/01 02:21:24;;;;;;;8.63;4.30;;;;;;;18.06;58.45;99680.31;5055366;28;20053;-63
2022/11/01 02:24:26;;;;;;;7.93;4.03;;;;;;;18.17;58.53;99681.22;5028764;28;20417;-61
2022/11/01 02:27:09;;;;;;;6.43;4.00;;;;;;;18.11;58.18;99681.97;4977452;28;20061;-60
2022/11/01 02:30:11;;;;;;;9.35;3.95;;;;;;;18.09;58.25;99698.44;5073216;28;20119;-56
2022/11/01 02:32:59;;;;;;;7.18;4.18;;;;;;;18.05;58.46;99681.47;5074538;28;20056;-59
2022/11/01 02:35:41;;;;;;;6.88;3.53;;;;;;;18.01;59.00;99681.44;5074612;28;20053;-59
2022/11/01 02:38:18;;;;;;;6.35;3.80;;;;;;;18.22;58.13;99678.03;5074264;28;20423;-58
2022/11/01 02:40:52;;;;;;;8.05;3.40;;;;;;;18.16;58.37;99681.59;5074911;28;20405;-59
2022/11/01 02:43:26;;;;;;;7.72;3.83;;;;;;;18.23;58.55;99685.31;5074454;28;20052;-59
2022/11/01 02:45:53;;;;;;;6.55;3.13;;;;;;;18.22;58.38;99691.34;5071604;28;20044;-59
2022/11/01 02:48:24;;;;;;;7.72;3.15;;;;;;;18.35;58.07;99681.44;5053917;28;20417;-59
2022/11/01 02:50:56;;;;;;;8.45;3.65;;;;;;;18.34;57.95;99684.63;5053910;28;20470;-60
2022/11/01 02:53:23;;;;;;;7.13;2.88;;;;;;;18.35;58.05;99691.88;5054394;28;20052;-60
2022/11/01 02:55:52;;;;;;;7.63;3.22;;;;;;;18.35;58.41;99697.53;5063533;28;20048;-60
2022/11/01 02:58:22;;;;;;;8.18;3.50;;;;;;;18.33;58.19;99705.56;5062387;28;20060;-60
2022/11/01 03:00:50;;;;;;;5.90;3.20;;;;;;;18.38;58.50;99708.03;5058655;28;20382;-60
2022/11/01 03:03:22;;;;;;;10.57;3.28;;;;;;;18.49;58.07;99711.78;5057178;28;20441;-60
2022/11/01 03:06:07;;;;;;;7.45;3.65;;;;;;;18.53;57.56;99706.19;5069488;28;20048;-60
2022/11/01 03:08:38;;;;;;;7.35;3.20;;;;;;;18.48;58.15;99707.34;5059723;28;20056;-61
2022/11/01 03:11:09;;;;;;;8.48;3.15;;;;;;;18.38;58.43;99693.94;5060019;28;20052;-60
2022/11/01 03:13:53;;;;;;;6.25;3.17;;;;;;;18.29;58.81;99699.06;5071344;28;20064;-59
2022/11/01 03:16:28;;;;;;;5.65;2.92;;;;;;;18.42;58.49;99704.06;5070858;28;20044;-59
2022/11/01 03:19:09;;;;;;;7.70;3.85;;;;;;;18.34;58.95;99712.81;5059528;28;20053;-60
2022/11/01 03:21:45;;;;;;;5.63;3.15;;;;;;;18.40;59.07;99695.16;5061564;28;20060;-59
2022/11/01 03:24:21;;;;;;;5.78;3.60;;;;;;;18.48;58.85;99712.97;5053211;28;20045;-59
2022/11/01 03:26:55;;;;;;;6.05;3.65;;;;;;;18.45;59.14;99708.91;5053471;28;20154;-58
2022/11/01 03:29:26;;;;;;;6.00;2.95;;;;;;;18.43;59.55;99710.50;5065784;28;20057;-59
2022/11/01 03:31:54;;;;;;;7.25;3.58;;;;;;;18.42;59.32;99715.34;5058345;28;20049;-62
2022/11/01 03:34:23;;;;;;;5.65;3.60;;;;;;;18.48;59.15;99712.97;5065659;28;20053;-59
2022/11/01 03:36:57;;;;;;;9.13;3.55;;;;;;;18.29;60.21;99711.16;5067357;28;20048;-60
2022/11/01 03:39:29;;;;;;;7.75;3.65;;;;;;;18.34;60.14;99710.81;5072830;28;20078;-61
2022/11/01 03:42:01;;;;;;;7.03;3.42;;;;;;;18.49;59.30;99717.41;5053726;28;20057;-61
2022/11/01 03:44:34;;;;;;;6.40;3.60;;;;;;;18.45;59.53;99720.19;5053598;28;20053;-62
2022/11/01 03:47:02;;;;;;;9.48;4.47;;;;;;;18.31;60.05;99733.31;5053744;28;20059;-61
2022/11/01 03:49:32;;;;;;;8.57;3.72;;;;;;;18.30;60.24;99709.16;5053235;28;20053;-61
2022/11/01 03:52:01;;;;;;;6.60;3.53;;;;;;;18.33;60.28;99723.31;5053281;28;20452;-61
2022/11/01 03:54:28;;;;;;;5.90;3.13;;;;;;;18.33;60.13;99722.47;5053632;28;20657;-61
2022/11/01 03:56:56;;;;;;;7.35;3.70;;;;;;;18.35;59.90;99735.00;5073332;28;20075;-61
2022/11/01 03:59:25;;;;;;;6.50;3.63;;;;;;;18.34;60.39;99732.56;5072684;28;20067;-61
2022/11/01 04:01:53;;;;;;;8.38;3.88;;;;;;;18.35;59.93;99728.53;5068762;28;20067;-55
2022/11/01 04:04:20;;;;;;;8.85;3.40;;;;;;;18.35;60.38;99742.63;5059269;28;20052;-55
2022/11/01 04:06:50;;;;;;;7.03;3.53;;;;;;;18.35;60.62;99746.28;5064049;28;20049;-55
2022/11/01 04:09:19;;;;;;;7.10;3.28;;;;;;;18.35;60.72;99737.00;5058056;28;20524;-57
2022/11/01 04:11:46;;;;;;;5.87;3.13;;;;;;;18.34;60.55;99746.66;5067872;28;20055;-55
2022/11/01 04:22:27;;;;;;;5.65;3.20;;;;;;;18.35;60.90;99771.66;5058582;28;20072;-52
2022/11/01 04:24:55;;;;;;;9.32;3.63;;;;;;;18.29;61.78;99767.56;5052622;28;20516;-53
2022/11/01 04:27:24;;;;;;;8.57;3.77;;;;;;;18.24;61.20;99788.41;5054453;28;20053;-55
2022/11/01 04:29:51;;;;;;;7.38;3.55;;;;;;;18.35;60.85;99759.53;5060941;28;20059;-54
2022/11/01 04:32:18;;;;;;;8.90;3.30;;;;;;;18.27;61.51;99767.13;5072013;28;20057;-54
2022/11/01 04:34:46;;;;;;;7.07;3.05;;;;;;;18.19;61.75;99740.84;5072367;28;20064;-55
2022/11/01 04:37:13;;;;;;;5.35;3.10;;;;;;;18.16;61.63;99761.34;5064918;28;20055;-55
2022/11/01 04:39:40;;;;;;;6.38;3.25;;;;;;;18.21;61.82;99755.38;5060794;28;20048;-53
2022/11/01 04:42:09;;;;;;;7.70;4.10;;;;;;;18.26;61.84;99757.03;5067252;28;20061;-54
2022/11/01 04:44:36;;;;;;;4.90;3.08;;;;;;;18.36;61.58;99755.53;5070394;28;20052;-54
2022/11/01 04:47:04;;;;;;;7.85;3.60;;;;;;;18.22;62.08;99768.25;5058563;28;20055;-54
2022/11/01 04:49:31;;;;;;;10.73;3.33;;;;;;;18.18;62.08;99763.78;5052281;28;20049;-53
2022/11/01 04:51:58;;;;;;;7.78;3.33;;;;;;;18.21;62.20;99788.38;5051912;28;20068;-54
2022/11/01 04:54:32;;;;;;;6.63;3.30;;;;;;;18.09;62.87;99769.72;5060448;28;20051;-54
2022/11/01 04:56:59;;;;;;;6.55;3.42;;;;;;;17.94;63.16;99787.63;5051697;28;20061;-54
2022/11/01 04:59:28;;;;;;;8.07;3.50;;;;;;;18.05;63.02;99774.47;5051866;28;20053;-53
2022/11/01 05:01:55;;;;;;;6.57;3.20;;;;;;;18.18;62.45;99775.84;5064489;28;20056;-54
2022/11/01 05:04:22;;;;;;;7.80;3.55;;;;;;;18.08;63.27;99789.81;5071246;28;20115;-54
2022/11/01 05:06:50;;;;;;;6.28;3.70;;;;;;;18.09;63.03;99791.44;5071728;28;20416;-55
2022/11/01 05:09:17;;;;;;;6.22;3.35;;;;;;;18.18;62.63;99777.88;5064276;28;20071;-54
2022/11/01 05:11:45;;;;;;;6.47;3.63;;;;;;;17.99;63.19;99801.38;5070526;28;20079;-54
2022/11/01 05:14:15;;;;;;;7.68;3.47;;;;;;;18.03;63.15;99783.31;5072095;28;20398;-53
2022/11/01 05:16:45;;;;;;;6.05;3.35;;;;;;;18.04;63.22;99784.16;5064010;28;20052;-51
2022/11/01 05:19:12;;;;;;;6.07;3.60;;;;;;;17.98;63.27;99803.38;5054087;28;20067;-54
2022/11/01 05:21:40;;;;;;;7.60;3.20;;;;;;;18.08;63.27;99801.09;5051406;28;20064;-54
2022/11/01 05:24:07;;;;;;;6.95;3.88;;;;;;;18.06;63.39;99790.22;5061435;28;20059;-54
2022/11/01 05:26:35;;;;;;;8.13;3.47;;;;;;;18.12;63.10;99814.06;5071615;28;20048;-54
2022/11/01 05:29:02;;;;;;;8.00;3.33;;;;;;;17.92;64.17;99812.56;5071320;28;20060;-53
2022/11/01 05:31:29;;;;;;;7.45;3.33;;;;;;;17.94;63.99;99810.97;5071253;28;20063;-53
2022/11/01 05:33:58;;;;;;;6.00;3.58;;;;;;;17.96;64.09;99810.59;5071560;28;20389;-54
2022/11/01 05:36:25;;;;;;;7.65;3.63;;;;;;;17.96;64.13;99817.03;5071454;28;20055;-55
2022/11/01 05:38:56;;;;;;;7.47;3.15;;;;;;;17.95;64.45;99814.59;5056724;28;20512;-55
2022/11/01 05:41:23;;;;;;;5.70;3.47;;;;;;;17.94;64.44;99807.34;5051509;28;20048;-55
2022/11/01 05:43:50;;;;;;;7.03;3.58;;;;;;;17.95;64.48;99803.31;5051670;28;20481;-55
2022/11/01 05:46:18;;;;;;;6.50;3.35;;;;;;;17.96;64.66;99814.22;5051729;28;20052;-54
2022/11/01 05:48:45;;;;;;;8.10;3.63;;;;;;;17.78;64.92;99828.00;5060024;28;20048;-55
2022/11/01 05:51:14;;;;;;;6.88;3.00;;;;;;;17.91;65.07;99823.03;5054835;28;20440;-54
2022/11/01 05:53:44;;;;;;;6.67;3.60;;;;;;;17.96;64.84;99816.25;5051122;28;20057;-56
2022/11/01 05:56:12;;;;;;;11.57;3.65;;;;;;;17.92;65.09;99824.63;5051388;28;20056;-55
2022/11/01 05:58:39;;;;;;;7.70;3.00;;;;;;;17.89;64.89;99822.59;5050987;28;20068;-55
2022/11/01 06:01:07;;;;;;;7.47;3.75;;;;;;;17.83;65.11;99818.47;5057050;28;20052;-54
2022/11/01 06:03:43;;;;;;;6.20;3.03;;;;;;;17.88;64.82;99826.56;5060159;28;20056;-53
2022/11/01 06:06:11;;;;;;;7.18;3.60;;;;;;;17.82;64.76;99833.69;5051221;28;20055;-54
2022/11/01 06:08:40;;;;;;;5.97;3.25;;;;;;;17.88;64.94;99840.66;5057665;28;20049;-55
2022/11/01 06:11:07;;;;;;;6.10;2.83;;;;;;;17.92;64.66;99843.53;5068167;28;20049;-55
2022/11/01 06:13:34;;;;;;;6.80;3.33;;;;;;;17.81;65.25;99851.81;5065410;28;20060;-54
2022/11/01 06:16:05;;;;;;;8.57;3.58;;;;;;;17.78;65.34;99849.72;5054141;28;20053;-55
2022/11/01 06:18:33;;;;;;;7.15;3.67;;;;;;;17.79;65.61;99845.75;5051357;28;20584;-54
2022/11/01 06:21:00;;;;;;;7.47;3.20;;;;;;;17.80;64.95;99848.16;5060944;28;20382;-54
2022/11/01 06:23:28;;;;;;;4.57;2.75;;;;;;;17.70;65.67;99868.53;5065033;28;20516;-55
2022/11/01 06:26:06;;;;;;;5.93;2.90;;;;;;;17.80;65.15;99865.06;5055225;28;20429;-55
2022/11/01 06:28:37;;;;;;;8.35;3.38;;;;;;;17.87;65.42;99872.03;5054708;28;20505;-54
2022/11/01 06:31:07;;;;;;;6.00;3.40;;;;;;;17.91;64.64;99882.19;5055095;28;20057;-55
2022/11/01 06:33:34;;;;;;;6.68;3.40;;;;;;;17.93;64.75;99884.59;5066323;28;20136;-54
2022/11/01 06:36:02;;;;;;;7.47;3.00;;;;;;;17.99;64.92;99905.63;5054159;28;20049;-54
2022/11/01 06:38:29;;;;;;;7.97;2.83;;;;;;;17.96;64.63;99900.78;5054245;28;20048;-53
2022/11/01 06:40:56;;;;;;;5.82;3.17;;;;;;;17.95;64.62;99899.13;5054289;28;20167;-55
2022/11/01 06:43:25;;;;;;;8.57;3.08;;;;;;;17.89;65.19;99917.53;5054341;28;20053;-55
2022/11/01 06:45:55;;;;;;;6.05;2.72;;;;;;;18.07;64.17;99929.91;5054876;28;20064;-55
2022/11/01 06:48:22;;;;;;;4.13;2.40;;;;;;;18.01;64.70;99928.63;5070679;28;20425;-53
2022/11/01 06:50:50;;;;;;;4.75;2.65;;;;;;;17.96;62.61;99912.03;5073661;28;20052;-55
2022/11/01 06:53:17;;;;;;;6.53;2.47;;;;;;;18.00;62.34;99936.25;5070684;28;20045;-53
2022/11/01 06:55:45;;;;;;;5.53;2.20;;;;;;;18.11;60.38;99938.44;5071254;28;20052;-55
2022/11/01 06:58:12;;;;;;;6.47;2.40;;;;;;;17.95;60.42;99952.66;5073266;28;20055;-54
2022/11/01 07:00:41;;;;;;;4.63;2.15;;;;;;;17.99;58.86;99950.72;5072336;28;20064;-54
2022/11/01 07:03:12;;;;;;;3.70;2.30;;;;;;;18.00;58.04;99955.19;5074265;28;20048;-55
2022/11/01 07:05:39;;;;;;;4.38;1.85;;;;;;;18.02;57.01;99956.44;5073867;28;20064;-55
2022/11/01 07:08:09;;;;;;;4.28;2.03;;;;;;;18.14;56.84;99958.25;5061815;28;20060;-54
2022/11/01 07:10:38;;;;;;;3.88;2.15;;;;;;;18.14;55.94;99969.50;5053934;28;20053;-55
2022/11/01 07:13:07;;;;;;;3.78;1.75;;;;;;;18.12;55.84;99973.88;5058705;28;20082;-54
2022/11/01 07:15:34;;;;;;;2.85;1.63;;;;;;;18.14;56.10;99992.06;5063014;28;20048;-55
2022/11/01 07:18:07;;;;;;;4.10;1.73;;;;;;;18.18;54.96;99994.91;5056934;28;20379;-53
2022/11/01 07:20:40;;;;;;;4.43;1.70;;;;;;;18.13;55.08;99995.25;5053589;28;20083;-53
2022/11/01 07:23:11;;;;;;;4.93;1.80;;;;;;;18.08;54.77;100004.84;5060105;28;20493;-56
2022/11/01 07:25:38;;;;;;;4.70;1.85;;;;;;;18.07;54.71;100008.03;5059885;28;20044;-55
2022/11/01 07:28:06;;;;;;;3.60;1.80;;;;;;;18.24;55.02;100013.13;5058001;28;20045;-54
2022/11/01 07:30:33;;;;;;;5.07;1.70;;;;;;;18.26;54.50;100016.41;5056095;28;20049;-54
2022/11/01 07:33:04;;;;;;;5.72;1.70;;;;;;;18.29;54.64;100031.72;5069499;28;20136;-55
2022/11/01 07:35:31;;;;;;;3.65;1.30;;;;;;;18.17;54.33;100027.94;5070604;28;20056;-54
2022/11/01 07:38:00;;;;;;;2.83;1.00;;;;;;;18.19;54.13;100047.31;5060646;28;20064;-54
2022/11/01 07:40:28;;;;;;;2.15;1.10;;;;;;;18.22;53.86;100055.78;5065809;28;20505;-55
2022/11/01 07:42:57;;;;;;;2.55;1.25;;;;;;;18.13;53.75;100057.25;5067280;28;20055;-54
2022/11/01 07:45:25;;;;;;;4.40;1.55;;;;;;;18.17;53.72;100073.03;5060259;28;20492;-55
2022/11/01 07:47:53;;;;;;;4.32;1.38;;;;;;;17.93;53.36;100074.22;5061755;28;20373;-54
2022/11/01 07:50:21;;;;;;;2.55;1.35;;;;;;;17.77;52.94;100090.38;5071695;28;20052;-54
2022/11/01 07:52:48;;;;;;;4.90;1.27;;;;;;;17.76;53.07;100083.09;5063198;28;20429;-53
2022/11/01 07:55:16;;;;;;;3.65;1.30;;;;;;;17.84;52.82;100082.09;5070102;28;20075;-54
2022/11/01 07:57:44;;;;;;;2.65;1.00;;;;;;;17.95;52.45;100090.75;5062961;28;20052;-54
2022/11/01 08:00:13;;;;;;;3.03;1.20;;;;;;;18.35;51.32;100093.09;5055801;28;20064;-55
2022/11/01 08:02:41;;;;;;;4.78;1.20;;;;;;;18.96;49.70;100108.19;5069940;28;20052;-55
2022/11/01 08:05:11;;;;;;;3.20;1.00;;;;;;;19.65;47.70;100101.44;5063587;28;20053;-54
2022/11/01 08:07:40;;;;;;;2.97;1.20;;;;;;;21.17;44.90;100110.13;5067635;28;20382;-55
2022/11/01 08:10:09;;;;;;;3.25;1.10;;;;;;;22.56;42.62;100109.78;5059231;28;20052;-54
2022/11/01 08:12:37;;;;;;;2.67;1.08;;;;;;;23.67;39.90;100117.28;5062650;28;20071;-54
2022/11/01 08:15:05;;;;;;;2.03;1.00;;;;;;;24.14;38.33;100114.22;5063709;28;20056;-55
2022/11/01 08:17:34;;;;;;;3.83;1.10;;;;;;;24.86;36.80;100111.66;5059155;28;20045;-54
2022/11/01 08:20:02;;;;;;;3.25;1.23;;;;;;;25.55;35.73;100131.72;5062601;28;20481;-54
2022/11/01 08:22:29;;;;;;;2.42;1.00;;;;;;;26.58;33.67;100135.22;5066452;28;20052;-56
2022/11/01 08:24:58;;;;;;;3.08;1.20;;;;;;;27.70;31.61;100125.44;5059933;28;20059;-56
2022/11/01 08:27:25;;;;;;;2.72;1.15;;;;;;;29.22;30.14;100129.22;5061002;28;20048;-55
2022/11/01 08:29:52;;;;;;;3.92;1.20;;;;;;;30.14;27.92;100133.53;5059275;28;20064;-54
2022/11/01 08:32:21;;;;;;;1.85;1.13;;;;;;;31.35;26.37;100134.44;5059259;28;20048;-55
2022/11/01 08:34:48;;;;;;;3.00;1.00;;;;;;;32.00;25.58;100137.03;5053783;28;20048;-55
2022/11/01 08:37:17;;;;;;;1.92;1.00;;;;;;;32.51;24.90;100137.44;5058993;28;20049;-57
2022/11/01 08:39:44;;;;;;;4.15;1.00;;;;;;;32.31;24.48;100139.91;5055912;28;20049;-56
2022/11/01 08:42:13;;;;;;;4.03;1.20;;;;;;;32.41;24.34;100135.00;5058963;28;20048;-56
2022/11/01 08:44:40;;;;;;;2.72;0.98;;;;;;;31.88;23.81;100124.31;5055572;28;20060;-56
2022/11/01 08:47:09;;;;;;;3.38;1.15;;;;;;;31.09;24.76;100138.69;5053231;28;20048;-56
2022/11/01 08:49:36;;;;;;;5.18;1.48;;;;;;;31.37;25.51;100148.34;5058657;28;20056;-56
2022/11/01 08:52:04;;;;;;;5.20;1.38;;;;;;;31.33;25.21;100150.56;5069817;28;20052;-56
2022/11/01 08:54:32;;;;;;;3.67;1.80;;;;;;;31.99;24.26;100155.59;5071725;28;20067;-56
2022/11/01 08:56:59;;;;;;;3.83;1.27;;;;;;;31.36;24.17;100164.81;5071436;28;20060;-56
2022/11/01 08:59:28;;;;;;;3.53;1.20;;;;;;;29.73;24.85;100161.00;5071985;28;20401;-56
2022/11/01 09:01:56;;;;;;;;;;;;;;;29.75;25.59;100169.97;5069895;28;20048;-56
2022/11/01 09:04:23;;;;;;;3.53;1.20;;;;;;;30.37;23.99;100174.75;5052066;28;19935;-56
2022/11/01 09:06:50;;;;;;;2.60;1.10;;;;;;;30.11;24.63;100200.50;5051249;28;20057;-56
2022/11/01 09:09:17;;;;;;;3.03;1.10;;;;;;;29.79;23.71;100190.78;5051891;28;20057;-56
2022/11/01 09:11:45;;;;;;;3.33;1.45;;;;;;;28.95;25.02;100194.19;5051504;28;20056;-57
2022/11/01 09:14:12;;;;;;;2.25;1.13;;;;;;;29.88;23.59;100199.56;5051598;28;20470;-56
2022/11/01 09:16:41;;;;;;;4.50;1.30;;;;;;;30.19;23.31;100222.00;5051438;28;20056;-56
2022/11/01 09:19:08;;;;;;;3.78;1.20;;;;;;;29.77;22.89;100213.41;5051874;28;20045;-56
2022/11/01 09:21:38;;;;;;;2.72;1.08;;;;;;;31.39;22.14;100203.38;5051692;28;20413;-56
2022/11/01 09:24:05;;;;;;;3.38;1.35;;;;;;;30.52;22.12;100198.88;5051668;28;20049;-56
2022/11/01 09:26:36;;;;;;;7.15;1.58;;;;;;;29.88;22.53;100222.53;5051601;28;20053;-57
2022/11/01 09:29:03;;;;;;;4.78;1.80;;;;;;;29.57;23.13;100209.81;5051331;28;20481;-56
2022/11/01 09:31:32;;;;;;;5.03;1.60;;;;;;;29.83;22.08;100222.25;5056185;28;20057;-57
2022/11/01 09:34:00;;;;;;;9.13;2.10;;;;;;;29.86;22.73;100236.53;5051961;28;20064;-56
2022/11/01 09:36:29;;;;;;;5.28;1.90;;;;;;;29.50;22.67;100237.50;5051109;28;20053;-56
2022/11/01 09:38:58;;;;;;;4.50;1.83;;;;;;;30.45;22.31;100250.81;5051190;28;20048;-56
2022/11/01 09:41:35;;;;;;;6.03;2.05;;;;;;;28.91;22.38;100268.03;5051133;28;20049;-56
2022/11/01 09:44:05;;;;;;;3.92;1.60;;;;;;;29.79;22.36;100233.84;5051608;28;20065;-56
2022/11/01 09:46:44;;;;;;;6.72;2.08;;;;;;;30.74;20.94;100240.06;5058878;28;20045;-56
2022/11/01 09:49:20;;;;;;;5.93;2.00;;;;;;;29.77;22.15;100239.22;5058935;28;20049;-56
2022/11/01 09:51:50;;;;;;;6.90;1.70;;;;;;;30.92;22.09;100247.34;5070351;28;20068;-56
2022/11/01 09:54:21;;;;;;;5.45;2.00;;;;;;;31.50;21.13;100232.63;5068327;28;20059;-56
2022/11/01 09:57:01;;;;;;;4.88;1.58;;;;;;;31.20;21.12;100250.50;5061304;28;20052;-56
2022/11/01 09:59:35;;;;;;;5.45;1.70;;;;;;;31.38;20.97;100230.56;5074362;28;20053;-56
2022/11/01 10:02:25;;;;;;;5.75;2.08;;;;;;;31.08;21.04;100232.81;5066517;28;20057;-56
2022/11/01 10:05:17;;;;;;;6.40;2.00;;;;;;;32.27;19.72;100231.47;5075223;28;20060;-56
2022/11/01 10:07:52;;;;;;;7.97;2.30;;;;;;;32.53;19.27;100235.00;5074891;28;20056;-56
2022/11/01 10:10:32;;;;;;;6.30;2.10;;;;;;;32.50;19.46;100250.34;5060094;28;20048;-57
2022/11/01 10:13:16;;;;;;;5.28;2.30;;;;;;;32.62;19.07;100235.06;5054855;28;20071;-57
2022/11/01 10:15:59;;;;;;;9.07;2.30;;;;;;;33.10;18.88;100229.81;5062345;28;20481;-57
2022/11/01 10:18:28;;;;;;;5.85;1.70;;;;;;;33.59;18.57;100238.91;5060737;28;20473;-57
2022/11/01 10:21:00;;;;;;;8.82;2.33;;;;;;;34.09;18.05;100236.66;5071968;28;20500;-57
2022/11/01 10:23:38;;;;;;;7.40;2.22;;;;;;;34.01;18.00;100252.72;5073688;28;20045;-57
2022/11/01 10:26:08;;;;;;;5.50;2.35;;;;;;;31.75;19.53;100260.53;5068759;28;20056;-57
2022/11/01 10:28:46;;;;;;;9.45;2.50;;;;;;;31.18;20.45;100264.56;5065782;28;20064;-57
2022/11/01 10:31:16;;;;;;;;;;;;;;;31.22;20.79;100256.63;5063999;28;20059;-57
2022/11/01 10:33:51;;;;;;;7.35;2.55;;;;;;;31.27;20.98;100253.97;5068082;28;19928;-57
2022/11/01 10:36:25;;;;;;;6.72;1.88;;;;;;;31.79;19.93;100257.50;5059454;28;20346;-57
2022/11/01 10:39:02;;;;;;;6.85;1.95;;;;;;;31.67;19.83;100261.28;5056740;28;20052;-57
2022/11/01 10:41:37;;;;;;;7.80;2.53;;;;;;;31.30;20.98;100264.53;5063614;28;20049;-57
2022/11/01 10:44:14;;;;;;;5.28;1.92;;;;;;;30.70;20.58;100253.75;5074503;28;20500;-57
2022/11/01 10:46:46;;;;;;;6.93;2.78;;;;;;;30.95;20.92;100255.84;5072285;28;20059;-57
2022/11/01 10:49:20;;;;;;;5.03;2.08;;;;;;;31.62;20.21;100256.09;5056430;28;20049;-57
2022/11/01 10:51:53;;;;;;;4.55;1.95;;;;;;;32.28;20.48;100254.06;5058185;28;20049;-58
2022/11/01 10:54:28;;;;;;;6.88;2.35;;;;;;;32.25;20.22;100260.78;5074527;28;20053;-57
2022/11/01 10:57:00;;;;;;;7.93;2.50;;;;;;;32.09;20.33;100258.13;5073696;28;20056;-58
2022/11/01 10:59:35;;;;;;;7.50;2.15;;;;;;;31.87;19.76;100261.75;5073603;28;20045;-57
2022/11/01 11:02:07;;;;;;;6.63;2.47;;;;;;;31.38;20.64;100262.22;5063705;28;20049;-57
2022/11/01 11:04:34;;;;;;;5.45;2.10;;;;;;;32.03;20.15;100257.13;5070381;28;20405;-58
2022/11/01 11:07:03;;;;;;;9.32;2.70;;;;;;;31.62;20.03;100256.09;5073582;28;20053;-57
2022/11/01 11:09:33;;;;;;;6.05;1.90;;;;;;;32.15;20.29;100248.41;5073298;28;20477;-57
2022/11/01 11:12:08;;;;;;;8.63;2.35;;;;;;;33.11;19.47;100240.06;5073833;28;20069;-57
2022/11/01 11:14:37;;;;;;;6.28;2.38;;;;;;;32.83;19.22;100241.25;5073856;28;20061;-57
2022/11/01 11:17:14;;;;;;;5.25;1.98;;;;;;;32.29;20.12;100249.91;5068168;28;20060;-58
2022/11/01 11:19:46;;;;;;;4.07;2.00;;;;;;;32.23;19.23;100262.53;5073456;28;20453;-57
2022/11/01 11:22:15;;;;;;;7.47;2.38;;;;;;;31.51;20.68;100260.16;5073989;28;20068;-57
2022/11/01 11:24:43;;;;;;;;;;;;;;;30.51;20.81;100255.56;5073984;28;20048;-58
2022/11/01 11:27:21;;;;;;;5.32;2.28;;;;;;;31.42;19.71;100251.41;5074153;28;19920;-57
2022/11/01 11:29:51;;;;;;;5.25;1.98;;;;;;;31.28;20.96;100249.81;5054109;28;20057;-56
2022/11/01 11:32:24;;;;;;;5.07;2.05;;;;;;;32.10;20.03;100233.78;5073744;28;20052;-57
2022/11/01 11:34:55;;;;;;;6.28;4.20;;;;;;;31.58;20.47;100253.31;5073404;28;20469;-57
2022/11/01 11:37:30;;;;;;;4.75;2.10;;;;;;;31.94;19.77;100255.72;5073719;28;20413;-57
2022/11/01 11:40:16;;;;;;;5.35;2.10;;;;;;;31.37;20.40;100257.72;5073116;28;20055;-57
2022/11/01 11:42:44;;;;;;;7.95;2.58;;;;;;;30.57;20.78;100260.75;5069964;28;20382;-57
2022/11/01 11:45:16;;;;;;;;;;;;;;;30.59;20.52;100267.63;5074049;28;20061;-57
2022/11/01 11:47:43;;;;;;;4.53;2.70;;;;;;;30.28;20.99;100282.50;5073373;28;19928;-56
2022/11/01 11:50:32;;;;;;;6.45;4.95;;;;;;;29.32;21.74;100272.38;5073418;28;20052;-56
2022/11/01 11:53:07;;;;;;;6.60;4.40;;;;;;;28.71;22.97;100270.97;5072955;28;20051;-56
2022/11/01 11:55:41;;;;;;;6.25;3.10;;;;;;;28.80;22.94;100261.75;5067929;28;20048;-57